Aviation Digital Data Service (ADDS)

Output produced by METARs form (0138 UTC 23 November 2017)
found at http://www.aviationweather.gov/adds/metars/
 
FTTJ 230100Z 03011KT 8000 NSC 22/M05 Q1011 NOSIG
TAF FTTJ 222300Z 2300/2406 02010KT 6000 NSC 
     TEMPO 2307/2313 08017KT 
     BECMG 2304/2306 4000 DU 
     BECMG 2310/2312 6000 NSW
       
FTTA 230000Z 00000KT CAVOK 21/19 Q1011